sensor_id;sensor_type;location;lat;lon;timestamp;P1;durP1;ratioP1;P2;durP2;ratioP2
6566;SDS011;3317;43.994;22.878;2023-03-01T00:02:22;44.80;;;25.70;;
6566;SDS011;3317;43.994;22.878;2023-03-01T00:04:49;46.50;;;24.87;;
6566;SDS011;3317;43.994;22.878;2023-03-01T00:07:15;45.43;;;25.50;;
6566;SDS011;3317;43.994;22.878;2023-03-01T00:09:42;45.07;;;24.57;;
6566;SDS011;3317;43.994;22.878;2023-03-01T00:12:11;47.63;;;25.30;;
6566;SDS011;3317;43.994;22.878;2023-03-01T00:14:38;46.20;;;24.80;;
6566;SDS011;3317;43.994;22.878;2023-03-01T00:17:06;43.30;;;23.97;;
6566;SDS011;3317;43.994;22.878;2023-03-01T00:19:33;46.40;;;23.77;;
6566;SDS011;3317;43.994;22.878;2023-03-01T00:22:00;44.70;;;25.37;;
6566;SDS011;3317;43.994;22.878;2023-03-01T00:24:27;44.37;;;23.93;;
6566;SDS011;3317;43.994;22.878;2023-03-01T00:26:54;46.47;;;25.27;;
6566;SDS011;3317;43.994;22.878;2023-03-01T00:29:21;41.67;;;23.50;;
6566;SDS011;3317;43.994;22.878;2023-03-01T00:31:48;43.37;;;23.77;;
6566;SDS011;3317;43.994;22.878;2023-03-01T00:34:17;42.00;;;24.20;;
6566;SDS011;3317;43.994;22.878;2023-03-01T00:36:44;44.70;;;23.90;;
6566;SDS011;3317;43.994;22.878;2023-03-01T00:39:11;45.87;;;24.33;;
6566;SDS011;3317;43.994;22.878;2023-03-01T00:41:40;41.47;;;24.20;;
6566;SDS011;3317;43.994;22.878;2023-03-01T00:44:08;43.30;;;23.17;;
6566;SDS011;3317;43.994;22.878;2023-03-01T00:46:35;47.87;;;25.50;;
6566;SDS011;3317;43.994;22.878;2023-03-01T00:49:02;48.93;;;25.27;;
6566;SDS011;3317;43.994;22.878;2023-03-01T00:51:31;49.63;;;26.67;;
6566;SDS011;3317;43.994;22.878;2023-03-01T00:53:58;47.20;;;26.37;;
6566;SDS011;3317;43.994;22.878;2023-03-01T00:56:28;45.60;;;26.20;;
6566;SDS011;3317;43.994;22.878;2023-03-01T00:58:55;46.90;;;25.80;;
6566;SDS011;3317;43.994;22.878;2023-03-01T01:01:23;44.87;;;24.70;;
6566;SDS011;3317;43.994;22.878;2023-03-01T01:03:53;47.30;;;25.03;;
6566;SDS011;3317;43.994;22.878;2023-03-01T01:06:21;45.60;;;25.43;;
6566;SDS011;3317;43.994;22.878;2023-03-01T01:08:51;44.07;;;24.40;;
6566;SDS011;3317;43.994;22.878;2023-03-01T01:11:19;46.30;;;23.93;;
6566;SDS011;3317;43.994;22.878;2023-03-01T01:13:47;46.83;;;25.43;;
6566;SDS011;3317;43.994;22.878;2023-03-01T01:16:15;46.20;;;25.30;;
6566;SDS011;3317;43.994;22.878;2023-03-01T01:18:42;43.60;;;25.50;;
6566;SDS011;3317;43.994;22.878;2023-03-01T01:21:10;43.03;;;24.50;;
6566;SDS011;3317;43.994;22.878;2023-03-01T01:23:39;41.37;;;24.30;;
6566;SDS011;3317;43.994;22.878;2023-03-01T01:26:09;42.07;;;24.07;;
6566;SDS011;3317;43.994;22.878;2023-03-01T01:28:37;42.50;;;24.77;;
6566;SDS011;3317;43.994;22.878;2023-03-01T01:31:04;46.87;;;25.30;;
6566;SDS011;3317;43.994;22.878;2023-03-01T01:33:32;44.57;;;22.93;;
6566;SDS011;3317;43.994;22.878;2023-03-01T01:35:59;41.90;;;24.27;;
6566;SDS011;3317;43.994;22.878;2023-03-01T01:38:26;40.47;;;22.70;;
6566;SDS011;3317;43.994;22.878;2023-03-01T01:40:53;39.80;;;22.60;;
6566;SDS011;3317;43.994;22.878;2023-03-01T01:43:22;41.37;;;23.10;;
6566;SDS011;3317;43.994;22.878;2023-03-01T01:45:54;43.20;;;24.47;;
6566;SDS011;3317;43.994;22.878;2023-03-01T01:48:27;42.03;;;23.37;;
6566;SDS011;3317;43.994;22.878;2023-03-01T01:51:05;35.13;;;20.90;;
6566;SDS011;3317;43.994;22.878;2023-03-01T01:53:36;45.53;;;22.23;;
6566;SDS011;3317;43.994;22.878;2023-03-01T01:56:05;42.13;;;24.10;;
6566;SDS011;3317;43.994;22.878;2023-03-01T01:58:36;38.57;;;22.17;;
6566;SDS011;3317;43.994;22.878;2023-03-01T02:01:04;34.80;;;21.20;;
6566;SDS011;3317;43.994;22.878;2023-03-01T02:03:32;40.07;;;21.63;;
6566;SDS011;3317;43.994;22.878;2023-03-01T02:06:10;40.80;;;22.00;;
6566;SDS011;3317;43.994;22.878;2023-03-01T02:08:41;36.53;;;21.50;;
6566;SDS011;3317;43.994;22.878;2023-03-01T02:11:08;35.93;;;20.47;;
6566;SDS011;3317;43.994;22.878;2023-03-01T02:13:41;33.53;;;19.93;;
6566;SDS011;3317;43.994;22.878;2023-03-01T02:16:09;36.70;;;21.17;;
6566;SDS011;3317;43.994;22.878;2023-03-01T02:18:38;34.30;;;19.57;;
6566;SDS011;3317;43.994;22.878;2023-03-01T02:21:10;33.60;;;20.33;;
6566;SDS011;3317;43.994;22.878;2023-03-01T02:23:44;38.93;;;21.27;;
6566;SDS011;3317;43.994;22.878;2023-03-01T02:26:14;39.43;;;21.47;;
6566;SDS011;3317;43.994;22.878;2023-03-01T02:28:48;35.77;;;21.03;;
6566;SDS011;3317;43.994;22.878;2023-03-01T02:31:16;38.70;;;19.63;;
6566;SDS011;3317;43.994;22.878;2023-03-01T02:34:02;33.87;;;19.70;;
6566;SDS011;3317;43.994;22.878;2023-03-01T02:36:30;33.97;;;20.10;;
6566;SDS011;3317;43.994;22.878;2023-03-01T02:39:01;33.00;;;19.13;;
6566;SDS011;3317;43.994;22.878;2023-03-01T02:41:32;35.27;;;19.30;;
6566;SDS011;3317;43.994;22.878;2023-03-01T02:44:03;32.83;;;19.83;;
6566;SDS011;3317;43.994;22.878;2023-03-01T02:46:31;33.70;;;19.50;;
6566;SDS011;3317;43.994;22.878;2023-03-01T02:48:58;35.13;;;20.40;;
6566;SDS011;3317;43.994;22.878;2023-03-01T02:51:33;36.10;;;20.47;;
6566;SDS011;3317;43.994;22.878;2023-03-01T02:54:12;35.53;;;20.83;;
6566;SDS011;3317;43.994;22.878;2023-03-01T02:56:48;36.00;;;21.10;;
6566;SDS011;3317;43.994;22.878;2023-03-01T02:59:18;33.93;;;19.13;;
6566;SDS011;3317;43.994;22.878;2023-03-01T03:01:46;34.77;;;20.03;;
6566;SDS011;3317;43.994;22.878;2023-03-01T03:04:14;32.20;;;20.17;;
6566;SDS011;3317;43.994;22.878;2023-03-01T03:06:43;31.73;;;18.60;;
6566;SDS011;3317;43.994;22.878;2023-03-01T03:09:10;33.93;;;19.40;;
6566;SDS011;3317;43.994;22.878;2023-03-01T03:11:37;38.90;;;20.00;;
6566;SDS011;3317;43.994;22.878;2023-03-01T03:14:06;33.00;;;20.10;;
6566;SDS011;3317;43.994;22.878;2023-03-01T03:16:40;39.33;;;20.00;;
6566;SDS011;3317;43.994;22.878;2023-03-01T03:19:08;32.50;;;18.90;;
6566;SDS011;3317;43.994;22.878;2023-03-01T03:21:35;33.77;;;19.00;;
6566;SDS011;3317;43.994;22.878;2023-03-01T03:24:02;35.60;;;20.60;;
6566;SDS011;3317;43.994;22.878;2023-03-01T03:26:30;33.43;;;19.57;;
6566;SDS011;3317;43.994;22.878;2023-03-01T03:28:57;34.07;;;19.33;;
6566;SDS011;3317;43.994;22.878;2023-03-01T03:31:24;31.87;;;18.30;;
6566;SDS011;3317;43.994;22.878;2023-03-01T03:33:53;36.80;;;18.50;;
6566;SDS011;3317;43.994;22.878;2023-03-01T03:36:20;30.37;;;18.27;;
6566;SDS011;3317;43.994;22.878;2023-03-01T03:38:49;31.87;;;19.73;;
6566;SDS011;3317;43.994;22.878;2023-03-01T03:41:16;31.77;;;18.53;;
6566;SDS011;3317;43.994;22.878;2023-03-01T03:43:44;33.70;;;19.80;;
6566;SDS011;3317;43.994;22.878;2023-03-01T03:46:11;34.70;;;19.63;;
6566;SDS011;3317;43.994;22.878;2023-03-01T03:48:39;31.27;;;19.03;;
6566;SDS011;3317;43.994;22.878;2023-03-01T03:51:11;32.13;;;19.60;;
6566;SDS011;3317;43.994;22.878;2023-03-01T03:53:39;29.77;;;17.73;;
6566;SDS011;3317;43.994;22.878;2023-03-01T03:56:06;33.10;;;19.07;;
6566;SDS011;3317;43.994;22.878;2023-03-01T03:58:34;32.27;;;18.83;;
6566;SDS011;3317;43.994;22.878;2023-03-01T04:01:01;30.00;;;17.37;;
6566;SDS011;3317;43.994;22.878;2023-03-01T04:03:28;28.43;;;17.60;;
6566;SDS011;3317;43.994;22.878;2023-03-01T04:05:57;31.10;;;17.47;;
6566;SDS011;3317;43.994;22.878;2023-03-01T04:08:27;26.73;;;17.00;;
6566;SDS011;3317;43.994;22.878;2023-03-01T04:10:56;30.13;;;18.07;;
6566;SDS011;3317;43.994;22.878;2023-03-01T04:13:25;28.20;;;17.27;;
6566;SDS011;3317;43.994;22.878;2023-03-01T04:15:52;30.17;;;17.43;;
6566;SDS011;3317;43.994;22.878;2023-03-01T04:18:22;28.10;;;16.63;;
6566;SDS011;3317;43.994;22.878;2023-03-01T04:20:50;30.43;;;18.63;;
6566;SDS011;3317;43.994;22.878;2023-03-01T04:23:20;29.77;;;17.40;;
6566;SDS011;3317;43.994;22.878;2023-03-01T04:25:49;28.40;;;18.53;;
6566;SDS011;3317;43.994;22.878;2023-03-01T04:28:20;34.77;;;17.73;;
6566;SDS011;3317;43.994;22.878;2023-03-01T04:30:49;32.47;;;19.50;;
6566;SDS011;3317;43.994;22.878;2023-03-01T04:33:17;30.23;;;19.47;;
6566;SDS011;3317;43.994;22.878;2023-03-01T04:35:44;32.03;;;18.63;;
6566;SDS011;3317;43.994;22.878;2023-03-01T04:38:14;32.67;;;18.53;;
6566;SDS011;3317;43.994;22.878;2023-03-01T04:40:41;31.70;;;18.40;;
6566;SDS011;3317;43.994;22.878;2023-03-01T04:43:10;36.27;;;18.57;;
6566;SDS011;3317;43.994;22.878;2023-03-01T04:45:39;33.97;;;19.00;;
6566;SDS011;3317;43.994;22.878;2023-03-01T04:48:06;31.60;;;18.20;;
6566;SDS011;3317;43.994;22.878;2023-03-01T04:50:33;33.70;;;19.63;;
6566;SDS011;3317;43.994;22.878;2023-03-01T04:53:01;29.03;;;17.03;;
6566;SDS011;3317;43.994;22.878;2023-03-01T04:55:29;33.60;;;19.20;;
6566;SDS011;3317;43.994;22.878;2023-03-01T04:57:56;30.73;;;18.03;;
6566;SDS011;3317;43.994;22.878;2023-03-01T05:00:24;34.93;;;18.67;;
6566;SDS011;3317;43.994;22.878;2023-03-01T05:02:53;34.50;;;19.73;;
6566;SDS011;3317;43.994;22.878;2023-03-01T05:05:21;35.97;;;20.60;;
6566;SDS011;3317;43.994;22.878;2023-03-01T05:07:54;39.13;;;20.13;;
6566;SDS011;3317;43.994;22.878;2023-03-01T05:10:22;31.30;;;18.43;;
6566;SDS011;3317;43.994;22.878;2023-03-01T05:12:50;34.00;;;19.60;;
6566;SDS011;3317;43.994;22.878;2023-03-01T05:15:18;33.07;;;19.50;;
6566;SDS011;3317;43.994;22.878;2023-03-01T05:17:48;36.47;;;20.53;;
6566;SDS011;3317;43.994;22.878;2023-03-01T05:20:15;36.03;;;21.93;;
6566;SDS011;3317;43.994;22.878;2023-03-01T05:22:42;37.03;;;19.97;;
6566;SDS011;3317;43.994;22.878;2023-03-01T05:25:09;32.90;;;20.03;;
6566;SDS011;3317;43.994;22.878;2023-03-01T05:27:39;37.30;;;21.30;;
6566;SDS011;3317;43.994;22.878;2023-03-01T05:30:06;33.80;;;20.50;;
6566;SDS011;3317;43.994;22.878;2023-03-01T05:32:43;39.00;;;22.00;;
6566;SDS011;3317;43.994;22.878;2023-03-01T05:35:13;33.23;;;20.47;;
6566;SDS011;3317;43.994;22.878;2023-03-01T05:37:44;32.53;;;19.37;;
6566;SDS011;3317;43.994;22.878;2023-03-01T05:40:13;30.10;;;18.63;;
6566;SDS011;3317;43.994;22.878;2023-03-01T05:42:44;33.80;;;19.20;;
6566;SDS011;3317;43.994;22.878;2023-03-01T05:45:13;29.57;;;19.00;;
6566;SDS011;3317;43.994;22.878;2023-03-01T05:47:41;33.90;;;20.03;;
6566;SDS011;3317;43.994;22.878;2023-03-01T05:50:14;35.00;;;19.67;;
6566;SDS011;3317;43.994;22.878;2023-03-01T05:52:44;35.60;;;21.30;;
6566;SDS011;3317;43.994;22.878;2023-03-01T05:55:12;29.17;;;19.00;;
6566;SDS011;3317;43.994;22.878;2023-03-01T05:57:39;33.00;;;20.67;;
6566;SDS011;3317;43.994;22.878;2023-03-01T06:00:06;32.17;;;18.53;;
6566;SDS011;3317;43.994;22.878;2023-03-01T06:02:34;26.97;;;17.73;;
6566;SDS011;3317;43.994;22.878;2023-03-01T06:05:01;30.63;;;19.13;;
6566;SDS011;3317;43.994;22.878;2023-03-01T06:07:30;33.60;;;19.53;;
6566;SDS011;3317;43.994;22.878;2023-03-01T06:09:57;31.87;;;19.20;;
6566;SDS011;3317;43.994;22.878;2023-03-01T06:12:24;28.00;;;17.30;;
6566;SDS011;3317;43.994;22.878;2023-03-01T06:14:51;29.83;;;17.47;;
6566;SDS011;3317;43.994;22.878;2023-03-01T06:17:17;29.40;;;18.27;;
6566;SDS011;3317;43.994;22.878;2023-03-01T06:19:44;28.57;;;17.60;;
6566;SDS011;3317;43.994;22.878;2023-03-01T06:22:12;28.03;;;16.77;;
6566;SDS011;3317;43.994;22.878;2023-03-01T06:24:41;31.77;;;18.03;;
6566;SDS011;3317;43.994;22.878;2023-03-01T06:27:07;28.20;;;17.47;;
6566;SDS011;3317;43.994;22.878;2023-03-01T06:29:34;28.40;;;17.97;;
6566;SDS011;3317;43.994;22.878;2023-03-01T06:32:01;30.60;;;17.00;;
6566;SDS011;3317;43.994;22.878;2023-03-01T06:34:28;29.77;;;18.13;;
6566;SDS011;3317;43.994;22.878;2023-03-01T06:36:55;30.97;;;17.30;;
6566;SDS011;3317;43.994;22.878;2023-03-01T06:39:22;25.70;;;15.90;;
6566;SDS011;3317;43.994;22.878;2023-03-01T06:41:51;28.83;;;17.00;;
6566;SDS011;3317;43.994;22.878;2023-03-01T06:44:17;27.17;;;16.20;;
6566;SDS011;3317;43.994;22.878;2023-03-01T06:46:45;31.67;;;19.00;;
6566;SDS011;3317;43.994;22.878;2023-03-01T06:49:12;28.13;;;15.97;;
6566;SDS011;3317;43.994;22.878;2023-03-01T06:51:38;30.80;;;18.87;;
6566;SDS011;3317;43.994;22.878;2023-03-01T06:54:05;34.07;;;20.70;;
6566;SDS011;3317;43.994;22.878;2023-03-01T06:56:32;31.03;;;18.07;;
6566;SDS011;3317;43.994;22.878;2023-03-01T06:59:01;28.63;;;18.17;;
6566;SDS011;3317;43.994;22.878;2023-03-01T07:01:28;29.97;;;18.03;;
6566;SDS011;3317;43.994;22.878;2023-03-01T07:03:55;31.37;;;18.50;;
6566;SDS011;3317;43.994;22.878;2023-03-01T07:06:22;33.23;;;20.00;;
6566;SDS011;3317;43.994;22.878;2023-03-01T07:08:49;30.53;;;18.93;;
6566;SDS011;3317;43.994;22.878;2023-03-01T07:11:16;30.20;;;18.97;;
6566;SDS011;3317;43.994;22.878;2023-03-01T07:13:43;27.80;;;16.67;;
6566;SDS011;3317;43.994;22.878;2023-03-01T07:16:12;27.40;;;17.73;;
6566;SDS011;3317;43.994;22.878;2023-03-01T07:18:39;32.43;;;20.27;;
6566;SDS011;3317;43.994;22.878;2023-03-01T07:21:06;30.63;;;18.90;;
6566;SDS011;3317;43.994;22.878;2023-03-01T07:23:34;30.43;;;18.33;;
6566;SDS011;3317;43.994;22.878;2023-03-01T07:26:01;31.23;;;19.10;;
6566;SDS011;3317;43.994;22.878;2023-03-01T07:28:28;30.07;;;17.90;;
6566;SDS011;3317;43.994;22.878;2023-03-01T07:30:58;29.70;;;18.30;;
6566;SDS011;3317;43.994;22.878;2023-03-01T07:33:29;28.67;;;18.40;;
6566;SDS011;3317;43.994;22.878;2023-03-01T07:35:56;28.77;;;18.90;;
6566;SDS011;3317;43.994;22.878;2023-03-01T07:38:24;28.10;;;18.30;;
6566;SDS011;3317;43.994;22.878;2023-03-01T07:40:51;28.23;;;17.67;;
6566;SDS011;3317;43.994;22.878;2023-03-01T07:43:18;30.70;;;18.93;;
6566;SDS011;3317;43.994;22.878;2023-03-01T07:45:45;25.17;;;17.27;;
6566;SDS011;3317;43.994;22.878;2023-03-01T07:48:12;26.43;;;17.83;;
6566;SDS011;3317;43.994;22.878;2023-03-01T07:50:40;28.67;;;18.73;;
6566;SDS011;3317;43.994;22.878;2023-03-01T07:53:08;27.10;;;17.40;;
6566;SDS011;3317;43.994;22.878;2023-03-01T07:55:35;30.73;;;19.37;;
6566;SDS011;3317;43.994;22.878;2023-03-01T07:58:02;39.13;;;21.20;;
6566;SDS011;3317;43.994;22.878;2023-03-01T08:00:29;32.53;;;19.00;;
6566;SDS011;3317;43.994;22.878;2023-03-01T08:02:58;31.07;;;19.00;;
6566;SDS011;3317;43.994;22.878;2023-03-01T08:05:25;30.80;;;19.50;;
6566;SDS011;3317;43.994;22.878;2023-03-01T08:07:53;27.67;;;18.90;;
6566;SDS011;3317;43.994;22.878;2023-03-01T08:10:20;26.67;;;18.97;;
6566;SDS011;3317;43.994;22.878;2023-03-01T08:12:47;32.30;;;18.90;;
6566;SDS011;3317;43.994;22.878;2023-03-01T08:15:16;31.17;;;19.77;;
6566;SDS011;3317;43.994;22.878;2023-03-01T08:17:44;33.57;;;20.50;;
6566;SDS011;3317;43.994;22.878;2023-03-01T08:20:11;30.17;;;19.30;;
6566;SDS011;3317;43.994;22.878;2023-03-01T08:22:38;26.80;;;17.37;;
6566;SDS011;3317;43.994;22.878;2023-03-01T08:25:07;28.50;;;18.43;;
6566;SDS011;3317;43.994;22.878;2023-03-01T08:27:34;30.37;;;17.30;;
6566;SDS011;3317;43.994;22.878;2023-03-01T08:30:01;30.73;;;19.37;;
6566;SDS011;3317;43.994;22.878;2023-03-01T08:32:28;31.93;;;19.83;;
6566;SDS011;3317;43.994;22.878;2023-03-01T08:34:55;34.47;;;18.77;;
6566;SDS011;3317;43.994;22.878;2023-03-01T08:37:22;32.30;;;19.40;;
6566;SDS011;3317;43.994;22.878;2023-03-01T08:39:49;28.57;;;18.80;;
6566;SDS011;3317;43.994;22.878;2023-03-01T08:42:17;32.60;;;18.37;;
6566;SDS011;3317;43.994;22.878;2023-03-01T08:44:44;28.80;;;17.63;;
6566;SDS011;3317;43.994;22.878;2023-03-01T08:47:11;30.93;;;18.70;;
6566;SDS011;3317;43.994;22.878;2023-03-01T08:49:38;31.70;;;19.70;;
6566;SDS011;3317;43.994;22.878;2023-03-01T08:52:05;27.50;;;17.23;;
6566;SDS011;3317;43.994;22.878;2023-03-01T08:54:32;32.73;;;18.10;;
6566;SDS011;3317;43.994;22.878;2023-03-01T08:57:00;29.47;;;18.17;;
6566;SDS011;3317;43.994;22.878;2023-03-01T08:59:29;27.80;;;17.70;;
6566;SDS011;3317;43.994;22.878;2023-03-01T09:02:00;29.27;;;17.97;;
6566;SDS011;3317;43.994;22.878;2023-03-01T09:04:27;30.43;;;19.00;;
6566;SDS011;3317;43.994;22.878;2023-03-01T09:06:54;39.67;;;23.50;;
6566;SDS011;3317;43.994;22.878;2023-03-01T09:09:21;56.57;;;26.27;;
6566;SDS011;3317;43.994;22.878;2023-03-01T09:11:48;44.97;;;23.77;;
6566;SDS011;3317;43.994;22.878;2023-03-01T09:14:16;64.57;;;31.70;;
6566;SDS011;3317;43.994;22.878;2023-03-01T09:16:44;42.33;;;23.13;;
6566;SDS011;3317;43.994;22.878;2023-03-01T09:19:11;29.50;;;18.87;;
6566;SDS011;3317;43.994;22.878;2023-03-01T09:21:38;26.80;;;17.20;;
6566;SDS011;3317;43.994;22.878;2023-03-01T09:24:06;26.00;;;16.40;;
6566;SDS011;3317;43.994;22.878;2023-03-01T09:26:33;29.27;;;16.60;;
6566;SDS011;3317;43.994;22.878;2023-03-01T09:29:00;30.60;;;17.90;;
6566;SDS011;3317;43.994;22.878;2023-03-01T09:31:27;37.20;;;22.90;;
6566;SDS011;3317;43.994;22.878;2023-03-01T09:33:55;40.33;;;24.73;;
6566;SDS011;3317;43.994;22.878;2023-03-01T09:36:23;31.90;;;18.37;;
6566;SDS011;3317;43.994;22.878;2023-03-01T09:38:51;28.00;;;18.07;;
6566;SDS011;3317;43.994;22.878;2023-03-01T09:44:12;25.77;;;16.00;;
6566;SDS011;3317;43.994;22.878;2023-03-01T09:46:46;28.00;;;17.60;;
6566;SDS011;3317;43.994;22.878;2023-03-01T09:49:17;30.77;;;17.20;;
6566;SDS011;3317;43.994;22.878;2023-03-01T09:51:48;26.60;;;17.00;;
6566;SDS011;3317;43.994;22.878;2023-03-01T09:54:21;28.40;;;17.67;;
6566;SDS011;3317;43.994;22.878;2023-03-01T09:56:53;28.27;;;17.00;;
6566;SDS011;3317;43.994;22.878;2023-03-01T09:59:32;28.90;;;18.03;;
6566;SDS011;3317;43.994;22.878;2023-03-01T10:02:16;26.13;;;17.00;;
6566;SDS011;3317;43.994;22.878;2023-03-01T10:04:55;30.90;;;19.03;;
6566;SDS011;3317;43.994;22.878;2023-03-01T10:07:32;26.97;;;17.30;;
6566;SDS011;3317;43.994;22.878;2023-03-01T10:10:07;32.47;;;18.40;;
6566;SDS011;3317;43.994;22.878;2023-03-01T10:12:41;26.90;;;16.57;;
6566;SDS011;3317;43.994;22.878;2023-03-01T10:15:11;29.97;;;17.30;;
6566;SDS011;3317;43.994;22.878;2023-03-01T10:17:43;33.70;;;18.87;;
6566;SDS011;3317;43.994;22.878;2023-03-01T10:20:18;32.80;;;19.40;;
6566;SDS011;3317;43.994;22.878;2023-03-01T10:22:47;37.10;;;21.50;;
6566;SDS011;3317;43.994;22.878;2023-03-01T10:25:20;31.60;;;20.43;;
6566;SDS011;3317;43.994;22.878;2023-03-01T10:27:59;34.50;;;21.73;;
6566;SDS011;3317;43.994;22.878;2023-03-01T10:30:32;32.53;;;19.70;;
6566;SDS011;3317;43.994;22.878;2023-03-01T10:33:04;29.10;;;19.13;;
6566;SDS011;3317;43.994;22.878;2023-03-01T10:35:38;31.30;;;19.30;;
6566;SDS011;3317;43.994;22.878;2023-03-01T10:38:06;29.63;;;18.47;;
6566;SDS011;3317;43.994;22.878;2023-03-01T10:40:49;27.97;;;19.90;;
6566;SDS011;3317;43.994;22.878;2023-03-01T10:43:18;30.03;;;19.13;;
6566;SDS011;3317;43.994;22.878;2023-03-01T10:45:46;31.03;;;19.87;;
6566;SDS011;3317;43.994;22.878;2023-03-01T10:48:14;31.00;;;19.17;;
6566;SDS011;3317;43.994;22.878;2023-03-01T10:50:44;29.87;;;20.27;;
6566;SDS011;3317;43.994;22.878;2023-03-01T10:53:20;31.60;;;19.77;;
6566;SDS011;3317;43.994;22.878;2023-03-01T10:55:56;28.53;;;17.80;;
6566;SDS011;3317;43.994;22.878;2023-03-01T10:58:25;28.53;;;17.80;;
6566;SDS011;3317;43.994;22.878;2023-03-01T11:00:53;26.40;;;17.00;;
6566;SDS011;3317;43.994;22.878;2023-03-01T11:03:22;26.70;;;17.93;;
6566;SDS011;3317;43.994;22.878;2023-03-01T11:05:53;33.70;;;19.90;;
6566;SDS011;3317;43.994;22.878;2023-03-01T11:08:35;31.17;;;19.00;;
6566;SDS011;3317;43.994;22.878;2023-03-01T11:11:05;29.70;;;19.37;;
6566;SDS011;3317;43.994;22.878;2023-03-01T11:13:40;31.50;;;19.00;;
6566;SDS011;3317;43.994;22.878;2023-03-01T11:16:22;27.20;;;18.10;;
6566;SDS011;3317;43.994;22.878;2023-03-01T11:19:04;28.40;;;17.60;;
6566;SDS011;3317;43.994;22.878;2023-03-01T11:21:44;26.87;;;17.70;;
6566;SDS011;3317;43.994;22.878;2023-03-01T11:24:18;28.70;;;18.93;;
6566;SDS011;3317;43.994;22.878;2023-03-01T11:26:47;29.60;;;17.93;;
6566;SDS011;3317;43.994;22.878;2023-03-01T11:29:21;27.63;;;17.63;;
6566;SDS011;3317;43.994;22.878;2023-03-01T11:31:57;28.47;;;16.80;;
6566;SDS011;3317;43.994;22.878;2023-03-01T11:34:33;26.80;;;16.90;;
6566;SDS011;3317;43.994;22.878;2023-03-01T11:37:09;24.73;;;16.30;;
6566;SDS011;3317;43.994;22.878;2023-03-01T11:39:50;24.47;;;16.43;;
6566;SDS011;3317;43.994;22.878;2023-03-01T11:42:24;25.23;;;15.70;;
6566;SDS011;3317;43.994;22.878;2023-03-01T11:45:02;26.03;;;15.47;;
6566;SDS011;3317;43.994;22.878;2023-03-01T11:47:49;23.93;;;15.00;;
6566;SDS011;3317;43.994;22.878;2023-03-01T11:50:29;30.40;;;17.20;;
6566;SDS011;3317;43.994;22.878;2023-03-01T11:53:04;28.17;;;16.77;;
6566;SDS011;3317;43.994;22.878;2023-03-01T11:55:50;27.83;;;16.60;;
6566;SDS011;3317;43.994;22.878;2023-03-01T11:58:38;30.77;;;18.70;;
6566;SDS011;3317;43.994;22.878;2023-03-01T12:01:35;26.77;;;17.70;;
6566;SDS011;3317;43.994;22.878;2023-03-01T12:07:24;25.50;;;16.30;;
6566;SDS011;3317;43.994;22.878;2023-03-01T12:10:09;22.33;;;15.17;;
6566;SDS011;3317;43.994;22.878;2023-03-01T12:12:48;23.93;;;15.87;;
6566;SDS011;3317;43.994;22.878;2023-03-01T12:15:42;23.37;;;15.57;;
6566;SDS011;3317;43.994;22.878;2023-03-01T12:18:23;25.50;;;15.70;;
6566;SDS011;3317;43.994;22.878;2023-03-01T12:21:06;26.73;;;16.10;;
6566;SDS011;3317;43.994;22.878;2023-03-01T12:23:47;24.67;;;15.70;;
6566;SDS011;3317;43.994;22.878;2023-03-01T12:26:29;24.00;;;15.80;;
6566;SDS011;3317;43.994;22.878;2023-03-01T12:29:08;22.57;;;15.57;;
6566;SDS011;3317;43.994;22.878;2023-03-01T12:34:45;26.43;;;16.47;;
6566;SDS011;3317;43.994;22.878;2023-03-01T12:37:28;20.07;;;13.50;;
6566;SDS011;3317;43.994;22.878;2023-03-01T12:40:03;21.00;;;13.23;;
6566;SDS011;3317;43.994;22.878;2023-03-01T12:42:50;20.37;;;13.40;;
6566;SDS011;3317;43.994;22.878;2023-03-01T12:45:32;19.10;;;12.43;;
6566;SDS011;3317;43.994;22.878;2023-03-01T12:48:15;19.40;;;13.23;;
6566;SDS011;3317;43.994;22.878;2023-03-01T12:50:51;17.37;;;11.97;;
6566;SDS011;3317;43.994;22.878;2023-03-01T12:53:23;20.67;;;13.17;;
6566;SDS011;3317;43.994;22.878;2023-03-01T12:55:53;22.80;;;13.80;;
6566;SDS011;3317;43.994;22.878;2023-03-01T12:58:26;24.20;;;14.40;;
6566;SDS011;3317;43.994;22.878;2023-03-01T13:03:55;29.17;;;16.03;;
6566;SDS011;3317;43.994;22.878;2023-03-01T13:06:32;23.47;;;14.47;;
6566;SDS011;3317;43.994;22.878;2023-03-01T13:09:10;23.33;;;15.60;;
6566;SDS011;3317;43.994;22.878;2023-03-01T13:11:43;23.70;;;14.87;;
6566;SDS011;3317;43.994;22.878;2023-03-01T13:17:32;25.20;;;15.53;;
6566;SDS011;3317;43.994;22.878;2023-03-01T13:20:11;22.57;;;15.77;;
6566;SDS011;3317;43.994;22.878;2023-03-01T13:22:40;30.33;;;17.40;;
6566;SDS011;3317;43.994;22.878;2023-03-01T13:25:15;29.70;;;17.83;;
6566;SDS011;3317;43.994;22.878;2023-03-01T13:27:44;26.53;;;16.20;;
6566;SDS011;3317;43.994;22.878;2023-03-01T13:33:33;24.87;;;14.83;;
6566;SDS011;3317;43.994;22.878;2023-03-01T13:36:10;22.37;;;14.47;;
6566;SDS011;3317;43.994;22.878;2023-03-01T13:38:59;23.33;;;15.47;;
6566;SDS011;3317;43.994;22.878;2023-03-01T13:44:17;23.80;;;14.27;;
6566;SDS011;3317;43.994;22.878;2023-03-01T13:46:53;28.30;;;15.60;;
6566;SDS011;3317;43.994;22.878;2023-03-01T13:49:23;19.03;;;13.73;;
6566;SDS011;3317;43.994;22.878;2023-03-01T13:51:54;20.10;;;12.63;;
6566;SDS011;3317;43.994;22.878;2023-03-01T13:54:24;23.40;;;14.27;;
6566;SDS011;3317;43.994;22.878;2023-03-01T13:56:54;22.80;;;14.43;;
6566;SDS011;3317;43.994;22.878;2023-03-01T13:59:22;25.30;;;15.70;;
6566;SDS011;3317;43.994;22.878;2023-03-01T14:01:56;23.90;;;14.70;;
6566;SDS011;3317;43.994;22.878;2023-03-01T14:04:25;23.23;;;15.63;;
6566;SDS011;3317;43.994;22.878;2023-03-01T14:07:08;25.23;;;15.40;;
6566;SDS011;3317;43.994;22.878;2023-03-01T14:09:37;22.30;;;14.60;;
6566;SDS011;3317;43.994;22.878;2023-03-01T14:12:12;23.80;;;15.13;;
6566;SDS011;3317;43.994;22.878;2023-03-01T14:14:59;28.37;;;15.23;;
6566;SDS011;3317;43.994;22.878;2023-03-01T14:17:33;25.97;;;16.50;;
6566;SDS011;3317;43.994;22.878;2023-03-01T14:20:10;22.43;;;16.10;;
6566;SDS011;3317;43.994;22.878;2023-03-01T14:22:41;25.40;;;15.80;;
6566;SDS011;3317;43.994;22.878;2023-03-01T14:25:17;24.80;;;15.53;;
6566;SDS011;3317;43.994;22.878;2023-03-01T14:27:52;32.10;;;16.17;;
6566;SDS011;3317;43.994;22.878;2023-03-01T14:30:23;27.67;;;16.93;;
6566;SDS011;3317;43.994;22.878;2023-03-01T14:32:53;25.27;;;16.60;;
6566;SDS011;3317;43.994;22.878;2023-03-01T14:35:22;28.53;;;18.60;;
6566;SDS011;3317;43.994;22.878;2023-03-01T14:37:51;30.53;;;18.63;;
6566;SDS011;3317;43.994;22.878;2023-03-01T14:40:20;30.13;;;18.63;;
6566;SDS011;3317;43.994;22.878;2023-03-01T14:42:50;33.03;;;20.17;;
6566;SDS011;3317;43.994;22.878;2023-03-01T14:45:18;29.30;;;18.70;;
6566;SDS011;3317;43.994;22.878;2023-03-01T14:47:45;29.50;;;17.63;;
6566;SDS011;3317;43.994;22.878;2023-03-01T14:50:19;28.70;;;17.57;;
6566;SDS011;3317;43.994;22.878;2023-03-01T14:52:50;35.47;;;20.13;;
6566;SDS011;3317;43.994;22.878;2023-03-01T14:55:19;28.87;;;17.70;;
6566;SDS011;3317;43.994;22.878;2023-03-01T14:57:48;26.20;;;17.07;;
6566;SDS011;3317;43.994;22.878;2023-03-01T15:00:18;28.30;;;16.63;;
6566;SDS011;3317;43.994;22.878;2023-03-01T15:02:46;29.03;;;18.10;;
6566;SDS011;3317;43.994;22.878;2023-03-01T15:05:16;32.70;;;20.47;;
6566;SDS011;3317;43.994;22.878;2023-03-01T15:07:49;31.67;;;20.10;;
6566;SDS011;3317;43.994;22.878;2023-03-01T15:10:19;29.70;;;18.37;;
6566;SDS011;3317;43.994;22.878;2023-03-01T15:12:47;25.90;;;16.70;;
6566;SDS011;3317;43.994;22.878;2023-03-01T15:15:31;25.30;;;15.50;;